sensor_id;sensor_type;location;lat;lon;timestamp;P1;durP1;ratioP1;P2;durP2;ratioP2
11396;SDS011;5754;43.726;7.416;2022-07-22T00:01:10;12.60;;;11.50;;
11396;SDS011;5754;43.726;7.416;2022-07-22T00:03:46;12.75;;;11.55;;
11396;SDS011;5754;43.726;7.416;2022-07-22T00:06:21;12.85;;;11.02;;
11396;SDS011;5754;43.726;7.416;2022-07-22T00:08:55;12.25;;;10.98;;
11396;SDS011;5754;43.726;7.416;2022-07-22T00:11:30;14.18;;;11.18;;
11396;SDS011;5754;43.726;7.416;2022-07-22T00:14:05;12.40;;;11.18;;
11396;SDS011;5754;43.726;7.416;2022-07-22T00:16:39;13.07;;;11.85;;
11396;SDS011;5754;43.726;7.416;2022-07-22T00:19:13;12.57;;;10.60;;
11396;SDS011;5754;43.726;7.416;2022-07-22T00:21:47;12.70;;;11.32;;
11396;SDS011;5754;43.726;7.416;2022-07-22T00:24:22;11.95;;;10.73;;
11396;SDS011;5754;43.726;7.416;2022-07-22T00:26:57;11.68;;;10.60;;
11396;SDS011;5754;43.726;7.416;2022-07-22T00:29:31;11.35;;;10.35;;
11396;SDS011;5754;43.726;7.416;2022-07-22T00:32:06;11.70;;;10.50;;
11396;SDS011;5754;43.726;7.416;2022-07-22T00:34:40;11.35;;;10.23;;
11396;SDS011;5754;43.726;7.416;2022-07-22T00:37:14;11.85;;;10.68;;
11396;SDS011;5754;43.726;7.416;2022-07-22T00:39:51;13.27;;;10.85;;
11396;SDS011;5754;43.726;7.416;2022-07-22T00:42:26;11.77;;;10.68;;
11396;SDS011;5754;43.726;7.416;2022-07-22T00:45:00;11.70;;;10.68;;
11396;SDS011;5754;43.726;7.416;2022-07-22T00:47:34;13.50;;;10.77;;
11396;SDS011;5754;43.726;7.416;2022-07-22T00:50:08;11.98;;;10.52;;
11396;SDS011;5754;43.726;7.416;2022-07-22T00:52:43;11.75;;;10.50;;
11396;SDS011;5754;43.726;7.416;2022-07-22T00:55:17;12.95;;;11.40;;
11396;SDS011;5754;43.726;7.416;2022-07-22T00:57:52;11.88;;;10.77;;
11396;SDS011;5754;43.726;7.416;2022-07-22T01:00:27;13.35;;;10.43;;
11396;SDS011;5754;43.726;7.416;2022-07-22T01:03:02;13.05;;;11.18;;
11396;SDS011;5754;43.726;7.416;2022-07-22T01:05:36;13.70;;;11.02;;
11396;SDS011;5754;43.726;7.416;2022-07-22T01:08:13;14.05;;;10.90;;
11396;SDS011;5754;43.726;7.416;2022-07-22T01:10:49;12.95;;;11.55;;
11396;SDS011;5754;43.726;7.416;2022-07-22T01:13:24;14.02;;;11.80;;
11396;SDS011;5754;43.726;7.416;2022-07-22T01:15:58;13.88;;;11.68;;
11396;SDS011;5754;43.726;7.416;2022-07-22T01:18:33;13.70;;;12.30;;
11396;SDS011;5754;43.726;7.416;2022-07-22T01:21:08;14.20;;;12.13;;
11396;SDS011;5754;43.726;7.416;2022-07-22T01:23:44;16.55;;;12.20;;
11396;SDS011;5754;43.726;7.416;2022-07-22T01:26:19;13.75;;;12.40;;
11396;SDS011;5754;43.726;7.416;2022-07-22T01:28:53;13.75;;;12.35;;
11396;SDS011;5754;43.726;7.416;2022-07-22T01:31:28;15.23;;;12.75;;
11396;SDS011;5754;43.726;7.416;2022-07-22T01:34:05;13.68;;;12.48;;
11396;SDS011;5754;43.726;7.416;2022-07-22T01:36:42;14.87;;;12.50;;
11396;SDS011;5754;43.726;7.416;2022-07-22T01:41:59;14.93;;;13.05;;
11396;SDS011;5754;43.726;7.416;2022-07-22T01:44:34;16.70;;;13.32;;
11396;SDS011;5754;43.726;7.416;2022-07-22T01:47:08;14.70;;;13.23;;
11396;SDS011;5754;43.726;7.416;2022-07-22T01:49:45;15.00;;;13.50;;
11396;SDS011;5754;43.726;7.416;2022-07-22T01:52:19;14.63;;;12.52;;
11396;SDS011;5754;43.726;7.416;2022-07-22T01:54:57;15.13;;;12.48;;
11396;SDS011;5754;43.726;7.416;2022-07-22T01:57:32;15.00;;;11.88;;
11396;SDS011;5754;43.726;7.416;2022-07-22T02:00:07;13.88;;;12.43;;
11396;SDS011;5754;43.726;7.416;2022-07-22T02:02:49;13.13;;;11.82;;
11396;SDS011;5754;43.726;7.416;2022-07-22T02:05:23;13.62;;;12.00;;
11396;SDS011;5754;43.726;7.416;2022-07-22T02:08:02;13.43;;;12.10;;
11396;SDS011;5754;43.726;7.416;2022-07-22T02:10:44;13.05;;;11.90;;
11396;SDS011;5754;43.726;7.416;2022-07-22T02:13:20;13.38;;;12.07;;
11396;SDS011;5754;43.726;7.416;2022-07-22T02:15:54;13.90;;;12.57;;
11396;SDS011;5754;43.726;7.416;2022-07-22T02:18:29;13.40;;;12.10;;
11396;SDS011;5754;43.726;7.416;2022-07-22T02:21:03;13.80;;;12.30;;
11396;SDS011;5754;43.726;7.416;2022-07-22T02:23:38;12.90;;;11.82;;
11396;SDS011;5754;43.726;7.416;2022-07-22T02:26:12;13.85;;;12.35;;
11396;SDS011;5754;43.726;7.416;2022-07-22T02:28:46;14.25;;;12.40;;
11396;SDS011;5754;43.726;7.416;2022-07-22T02:31:21;13.15;;;11.85;;
11396;SDS011;5754;43.726;7.416;2022-07-22T02:33:56;13.75;;;12.35;;
11396;SDS011;5754;43.726;7.416;2022-07-22T02:36:32;15.07;;;12.37;;
11396;SDS011;5754;43.726;7.416;2022-07-22T02:39:06;13.82;;;12.05;;
11396;SDS011;5754;43.726;7.416;2022-07-22T02:41:41;12.63;;;11.43;;
11396;SDS011;5754;43.726;7.416;2022-07-22T02:44:19;14.55;;;12.57;;
11396;SDS011;5754;43.726;7.416;2022-07-22T02:46:53;14.30;;;11.73;;
11396;SDS011;5754;43.726;7.416;2022-07-22T02:49:33;13.25;;;11.68;;
11396;SDS011;5754;43.726;7.416;2022-07-22T02:52:08;14.13;;;12.65;;
11396;SDS011;5754;43.726;7.416;2022-07-22T02:54:43;13.88;;;12.48;;
11396;SDS011;5754;43.726;7.416;2022-07-22T02:57:18;13.18;;;11.95;;
11396;SDS011;5754;43.726;7.416;2022-07-22T02:59:52;17.08;;;12.43;;
11396;SDS011;5754;43.726;7.416;2022-07-22T03:02:27;13.40;;;12.10;;
11396;SDS011;5754;43.726;7.416;2022-07-22T03:05:02;14.13;;;12.73;;
11396;SDS011;5754;43.726;7.416;2022-07-22T03:07:37;14.25;;;12.75;;
11396;SDS011;5754;43.726;7.416;2022-07-22T03:10:13;16.02;;;13.13;;
11396;SDS011;5754;43.726;7.416;2022-07-22T03:12:48;15.48;;;12.63;;
11396;SDS011;5754;43.726;7.416;2022-07-22T03:15:24;12.98;;;11.73;;
11396;SDS011;5754;43.726;7.416;2022-07-22T03:17:59;14.73;;;12.90;;
11396;SDS011;5754;43.726;7.416;2022-07-22T03:20:35;13.85;;;12.50;;
11396;SDS011;5754;43.726;7.416;2022-07-22T03:23:10;14.77;;;12.40;;
11396;SDS011;5754;43.726;7.416;2022-07-22T03:25:44;14.95;;;12.52;;
11396;SDS011;5754;43.726;7.416;2022-07-22T03:28:19;16.80;;;13.18;;
11396;SDS011;5754;43.726;7.416;2022-07-22T03:30:53;13.52;;;11.80;;
11396;SDS011;5754;43.726;7.416;2022-07-22T03:33:27;16.27;;;12.75;;
11396;SDS011;5754;43.726;7.416;2022-07-22T03:36:02;14.90;;;12.57;;
11396;SDS011;5754;43.726;7.416;2022-07-22T03:38:40;12.93;;;11.68;;
11396;SDS011;5754;43.726;7.416;2022-07-22T03:41:14;13.40;;;11.93;;
11396;SDS011;5754;43.726;7.416;2022-07-22T03:43:49;13.38;;;12.07;;
11396;SDS011;5754;43.726;7.416;2022-07-22T03:46:24;12.77;;;11.45;;
11396;SDS011;5754;43.726;7.416;2022-07-22T03:48:59;13.35;;;11.80;;
11396;SDS011;5754;43.726;7.416;2022-07-22T03:51:37;14.98;;;12.75;;
11396;SDS011;5754;43.726;7.416;2022-07-22T03:54:11;13.43;;;12.13;;
11396;SDS011;5754;43.726;7.416;2022-07-22T03:56:47;13.30;;;12.00;;
11396;SDS011;5754;43.726;7.416;2022-07-22T03:59:22;13.02;;;11.63;;
11396;SDS011;5754;43.726;7.416;2022-07-22T04:01:56;13.38;;;12.05;;
11396;SDS011;5754;43.726;7.416;2022-07-22T04:04:31;12.82;;;11.52;;
11396;SDS011;5754;43.726;7.416;2022-07-22T04:07:05;12.82;;;11.73;;
11396;SDS011;5754;43.726;7.416;2022-07-22T04:09:42;12.10;;;11.00;;
11396;SDS011;5754;43.726;7.416;2022-07-22T04:12:16;12.52;;;11.30;;
11396;SDS011;5754;43.726;7.416;2022-07-22T04:15:10;13.62;;;10.90;;
11396;SDS011;5754;43.726;7.416;2022-07-22T04:17:46;12.25;;;11.10;;
11396;SDS011;5754;43.726;7.416;2022-07-22T04:20:21;12.60;;;11.32;;
11396;SDS011;5754;43.726;7.416;2022-07-22T04:23:53;13.73;;;11.05;;
11396;SDS011;5754;43.726;7.416;2022-07-22T04:26:34;11.30;;;10.20;;
11396;SDS011;5754;43.726;7.416;2022-07-22T04:29:10;12.90;;;10.55;;
11396;SDS011;5754;43.726;7.416;2022-07-22T04:31:46;12.00;;;10.80;;
11396;SDS011;5754;43.726;7.416;2022-07-22T04:34:23;11.27;;;10.23;;
11396;SDS011;5754;43.726;7.416;2022-07-22T04:36:58;12.30;;;11.00;;
11396;SDS011;5754;43.726;7.416;2022-07-22T04:39:33;11.93;;;10.65;;
11396;SDS011;5754;43.726;7.416;2022-07-22T04:42:09;11.00;;;10.02;;
11396;SDS011;5754;43.726;7.416;2022-07-22T04:44:45;13.48;;;10.45;;
11396;SDS011;5754;43.726;7.416;2022-07-22T04:47:21;12.05;;;10.43;;
11396;SDS011;5754;43.726;7.416;2022-07-22T04:49:55;11.68;;;10.60;;
11396;SDS011;5754;43.726;7.416;2022-07-22T04:52:30;12.30;;;10.82;;
11396;SDS011;5754;43.726;7.416;2022-07-22T04:55:05;13.60;;;10.60;;
11396;SDS011;5754;43.726;7.416;2022-07-22T04:57:40;11.82;;;10.68;;
11396;SDS011;5754;43.726;7.416;2022-07-22T05:00:15;12.02;;;10.73;;
11396;SDS011;5754;43.726;7.416;2022-07-22T05:02:56;11.93;;;10.38;;
11396;SDS011;5754;43.726;7.416;2022-07-22T05:05:33;13.77;;;10.10;;
11396;SDS011;5754;43.726;7.416;2022-07-22T05:08:08;10.85;;;9.75;;
11396;SDS011;5754;43.726;7.416;2022-07-22T05:10:43;12.18;;;11.00;;
11396;SDS011;5754;43.726;7.416;2022-07-22T05:13:17;11.82;;;10.63;;
11396;SDS011;5754;43.726;7.416;2022-07-22T05:15:51;14.95;;;10.95;;
11396;SDS011;5754;43.726;7.416;2022-07-22T05:18:26;12.20;;;11.05;;
11396;SDS011;5754;43.726;7.416;2022-07-22T05:21:02;13.85;;;11.02;;
11396;SDS011;5754;43.726;7.416;2022-07-22T05:23:36;12.27;;;10.98;;
11396;SDS011;5754;43.726;7.416;2022-07-22T05:26:11;13.00;;;11.15;;
11396;SDS011;5754;43.726;7.416;2022-07-22T05:28:45;12.48;;;11.15;;
11396;SDS011;5754;43.726;7.416;2022-07-22T05:31:20;11.70;;;10.60;;
11396;SDS011;5754;43.726;7.416;2022-07-22T05:33:55;12.35;;;11.02;;
11396;SDS011;5754;43.726;7.416;2022-07-22T05:36:38;13.50;;;10.45;;
11396;SDS011;5754;43.726;7.416;2022-07-22T05:39:13;12.88;;;10.82;;
11396;SDS011;5754;43.726;7.416;2022-07-22T05:41:48;11.52;;;10.43;;
11396;SDS011;5754;43.726;7.416;2022-07-22T05:44:28;11.88;;;10.77;;
11396;SDS011;5754;43.726;7.416;2022-07-22T05:47:05;13.43;;;11.07;;
11396;SDS011;5754;43.726;7.416;2022-07-22T05:49:41;13.75;;;11.23;;
11396;SDS011;5754;43.726;7.416;2022-07-22T05:52:18;12.30;;;11.05;;
11396;SDS011;5754;43.726;7.416;2022-07-22T05:54:52;12.00;;;10.70;;
11396;SDS011;5754;43.726;7.416;2022-07-22T05:57:27;12.85;;;10.93;;
11396;SDS011;5754;43.726;7.416;2022-07-22T06:00:05;11.77;;;10.63;;
11396;SDS011;5754;43.726;7.416;2022-07-22T06:02:47;14.40;;;11.15;;
11396;SDS011;5754;43.726;7.416;2022-07-22T06:05:26;12.70;;;11.50;;
11396;SDS011;5754;43.726;7.416;2022-07-22T06:08:09;12.82;;;10.88;;
11396;SDS011;5754;43.726;7.416;2022-07-22T06:10:50;12.48;;;10.82;;
11396;SDS011;5754;43.726;7.416;2022-07-22T06:13:24;11.60;;;10.32;;
11396;SDS011;5754;43.726;7.416;2022-07-22T06:15:59;12.18;;;9.52;;
11396;SDS011;5754;43.726;7.416;2022-07-22T06:18:34;11.68;;;9.93;;
11396;SDS011;5754;43.726;7.416;2022-07-22T06:21:09;11.38;;;10.27;;
11396;SDS011;5754;43.726;7.416;2022-07-22T06:23:47;12.65;;;10.20;;
11396;SDS011;5754;43.726;7.416;2022-07-22T06:26:22;13.75;;;10.43;;
11396;SDS011;5754;43.726;7.416;2022-07-22T06:28:57;10.15;;;9.32;;
11396;SDS011;5754;43.726;7.416;2022-07-22T06:31:32;10.98;;;9.25;;
11396;SDS011;5754;43.726;7.416;2022-07-22T06:34:07;9.98;;;8.98;;
11396;SDS011;5754;43.726;7.416;2022-07-22T06:37:01;10.57;;;8.43;;
11396;SDS011;5754;43.726;7.416;2022-07-22T06:39:35;11.02;;;8.65;;
11396;SDS011;5754;43.726;7.416;2022-07-22T06:42:21;8.85;;;7.82;;
11396;SDS011;5754;43.726;7.416;2022-07-22T06:45:41;11.32;;;8.90;;
11396;SDS011;5754;43.726;7.416;2022-07-22T06:48:25;10.27;;;8.57;;
11396;SDS011;5754;43.726;7.416;2022-07-22T06:51:00;11.18;;;8.60;;
11396;SDS011;5754;43.726;7.416;2022-07-22T06:53:36;8.93;;;8.13;;
11396;SDS011;5754;43.726;7.416;2022-07-22T06:56:10;9.00;;;8.07;;
11396;SDS011;5754;43.726;7.416;2022-07-22T06:58:48;9.02;;;8.23;;
11396;SDS011;5754;43.726;7.416;2022-07-22T07:01:24;10.43;;;8.57;;
11396;SDS011;5754;43.726;7.416;2022-07-22T07:04:06;12.05;;;8.55;;
11396;SDS011;5754;43.726;7.416;2022-07-22T07:06:43;9.90;;;7.72;;
11396;SDS011;5754;43.726;7.416;2022-07-22T07:09:36;9.45;;;8.18;;
11396;SDS011;5754;43.726;7.416;2022-07-22T07:12:33;9.10;;;8.20;;
11396;SDS011;5754;43.726;7.416;2022-07-22T07:15:45;10.48;;;7.95;;
11396;SDS011;5754;43.726;7.416;2022-07-22T07:18:20;8.98;;;7.50;;
11396;SDS011;5754;43.726;7.416;2022-07-22T07:20:56;8.73;;;7.85;;
11396;SDS011;5754;43.726;7.416;2022-07-22T07:23:31;10.32;;;8.30;;
11396;SDS011;5754;43.726;7.416;2022-07-22T07:26:05;9.25;;;8.07;;
11396;SDS011;5754;43.726;7.416;2022-07-22T07:28:39;8.57;;;7.43;;
11396;SDS011;5754;43.726;7.416;2022-07-22T07:31:26;11.12;;;7.45;;
11396;SDS011;5754;43.726;7.416;2022-07-22T07:34:00;9.48;;;7.90;;
11396;SDS011;5754;43.726;7.416;2022-07-22T07:36:35;11.00;;;7.18;;
11396;SDS011;5754;43.726;7.416;2022-07-22T07:39:10;8.95;;;7.80;;
11396;SDS011;5754;43.726;7.416;2022-07-22T07:41:45;11.15;;;7.85;;
11396;SDS011;5754;43.726;7.416;2022-07-22T07:44:21;8.48;;;7.10;;
11396;SDS011;5754;43.726;7.416;2022-07-22T07:46:55;8.48;;;7.40;;
11396;SDS011;5754;43.726;7.416;2022-07-22T07:49:31;9.95;;;7.22;;
11396;SDS011;5754;43.726;7.416;2022-07-22T07:52:06;11.52;;;7.22;;
11396;SDS011;5754;43.726;7.416;2022-07-22T07:54:41;8.40;;;7.30;;
11396;SDS011;5754;43.726;7.416;2022-07-22T07:57:33;7.12;;;6.43;;
11396;SDS011;5754;43.726;7.416;2022-07-22T08:00:10;7.85;;;7.07;;
11396;SDS011;5754;43.726;7.416;2022-07-22T08:02:49;8.40;;;6.78;;
11396;SDS011;5754;43.726;7.416;2022-07-22T08:05:25;9.23;;;7.72;;
11396;SDS011;5754;43.726;7.416;2022-07-22T08:08:00;8.73;;;7.32;;
11396;SDS011;5754;43.726;7.416;2022-07-22T08:10:35;8.38;;;7.55;;
11396;SDS011;5754;43.726;7.416;2022-07-22T08:13:47;10.43;;;7.78;;
11396;SDS011;5754;43.726;7.416;2022-07-22T08:17:43;9.27;;;7.65;;
11396;SDS011;5754;43.726;7.416;2022-07-22T08:20:17;8.10;;;7.40;;
11396;SDS011;5754;43.726;7.416;2022-07-22T08:22:55;8.77;;;7.75;;
11396;SDS011;5754;43.726;7.416;2022-07-22T08:25:33;9.57;;;7.43;;
11396;SDS011;5754;43.726;7.416;2022-07-22T08:28:07;9.57;;;7.60;;
11396;SDS011;5754;43.726;7.416;2022-07-22T08:30:44;9.85;;;7.68;;
11396;SDS011;5754;43.726;7.416;2022-07-22T08:33:19;7.75;;;6.87;;
11396;SDS011;5754;43.726;7.416;2022-07-22T08:35:53;10.15;;;7.62;;
11396;SDS011;5754;43.726;7.416;2022-07-22T08:38:28;8.55;;;7.68;;
11396;SDS011;5754;43.726;7.416;2022-07-22T08:41:04;9.43;;;8.43;;
11396;SDS011;5754;43.726;7.416;2022-07-22T08:43:40;10.88;;;8.68;;
11396;SDS011;5754;43.726;7.416;2022-07-22T08:46:17;10.07;;;8.25;;
11396;SDS011;5754;43.726;7.416;2022-07-22T08:52:25;11.15;;;8.57;;
11396;SDS011;5754;43.726;7.416;2022-07-22T08:55:04;9.68;;;8.60;;
11396;SDS011;5754;43.726;7.416;2022-07-22T08:57:43;9.25;;;8.35;;
11396;SDS011;5754;43.726;7.416;2022-07-22T09:00:19;10.60;;;8.25;;
11396;SDS011;5754;43.726;7.416;2022-07-22T09:02:53;9.48;;;8.50;;
11396;SDS011;5754;43.726;7.416;2022-07-22T09:05:32;12.65;;;8.88;;
11396;SDS011;5754;43.726;7.416;2022-07-22T09:08:19;10.00;;;9.00;;
11396;SDS011;5754;43.726;7.416;2022-07-22T09:11:15;10.52;;;9.20;;
11396;SDS011;5754;43.726;7.416;2022-07-22T09:14:08;10.13;;;8.85;;
11396;SDS011;5754;43.726;7.416;2022-07-22T09:17:32;13.30;;;9.10;;
11396;SDS011;5754;43.726;7.416;2022-07-22T09:20:29;10.98;;;9.88;;
11396;SDS011;5754;43.726;7.416;2022-07-22T09:23:22;12.02;;;9.63;;
11396;SDS011;5754;43.726;7.416;2022-07-22T09:25:59;10.27;;;9.38;;
11396;SDS011;5754;43.726;7.416;2022-07-22T09:28:55;12.63;;;9.68;;
11396;SDS011;5754;43.726;7.416;2022-07-22T09:32:03;11.10;;;9.90;;
11396;SDS011;5754;43.726;7.416;2022-07-22T09:41:29;10.73;;;9.73;;
11396;SDS011;5754;43.726;7.416;2022-07-22T09:44:22;11.02;;;9.93;;
11396;SDS011;5754;43.726;7.416;2022-07-22T09:46:59;12.30;;;10.80;;
11396;SDS011;5754;43.726;7.416;2022-07-22T09:53:07;11.82;;;10.27;;
11396;SDS011;5754;43.726;7.416;2022-07-22T09:55:46;13.65;;;11.12;;
11396;SDS011;5754;43.726;7.416;2022-07-22T09:58:22;10.70;;;9.77;;
11396;SDS011;5754;43.726;7.416;2022-07-22T10:01:02;12.35;;;11.05;;
11396;SDS011;5754;43.726;7.416;2022-07-22T10:03:37;12.68;;;11.40;;
11396;SDS011;5754;43.726;7.416;2022-07-22T10:06:14;11.85;;;10.68;;
11396;SDS011;5754;43.726;7.416;2022-07-22T10:08:50;14.30;;;12.80;;
11396;SDS011;5754;43.726;7.416;2022-07-22T10:11:25;14.30;;;12.88;;
11396;SDS011;5754;43.726;7.416;2022-07-22T10:13:59;14.23;;;12.77;;
11396;SDS011;5754;43.726;7.416;2022-07-22T10:16:35;18.73;;;13.35;;
11396;SDS011;5754;43.726;7.416;2022-07-22T10:19:10;14.73;;;13.32;;
11396;SDS011;5754;43.726;7.416;2022-07-22T10:21:46;14.32;;;12.90;;
11396;SDS011;5754;43.726;7.416;2022-07-22T10:24:20;14.70;;;12.77;;
11396;SDS011;5754;43.726;7.416;2022-07-22T10:27:07;14.40;;;12.98;;
11396;SDS011;5754;43.726;7.416;2022-07-22T10:29:42;16.33;;;13.55;;
11396;SDS011;5754;43.726;7.416;2022-07-22T10:35:22;14.90;;;13.10;;
11396;SDS011;5754;43.726;7.416;2022-07-22T10:37:59;13.48;;;12.18;;
11396;SDS011;5754;43.726;7.416;2022-07-22T10:40:47;15.20;;;12.52;;
11396;SDS011;5754;43.726;7.416;2022-07-22T10:43:22;13.88;;;12.45;;
11396;SDS011;5754;43.726;7.416;2022-07-22T10:46:00;13.85;;;12.45;;
11396;SDS011;5754;43.726;7.416;2022-07-22T10:51:24;15.90;;;13.10;;
11396;SDS011;5754;43.726;7.416;2022-07-22T10:54:02;13.75;;;12.35;;
11396;SDS011;5754;43.726;7.416;2022-07-22T10:56:37;12.93;;;11.63;;
11396;SDS011;5754;43.726;7.416;2022-07-22T10:59:15;14.00;;;11.57;;
11396;SDS011;5754;43.726;7.416;2022-07-22T11:01:52;13.45;;;10.77;;
11396;SDS011;5754;43.726;7.416;2022-07-22T11:04:32;14.00;;;10.93;;
11396;SDS011;5754;43.726;7.416;2022-07-22T11:07:07;17.23;;;10.95;;
11396;SDS011;5754;43.726;7.416;2022-07-22T11:09:42;12.57;;;10.40;;
11396;SDS011;5754;43.726;7.416;2022-07-22T11:12:17;15.88;;;10.50;;
11396;SDS011;5754;43.726;7.416;2022-07-22T11:14:51;15.70;;;10.75;;
11396;SDS011;5754;43.726;7.416;2022-07-22T11:17:26;11.70;;;10.10;;
11396;SDS011;5754;43.726;7.416;2022-07-22T11:20:03;11.88;;;10.40;;
11396;SDS011;5754;43.726;7.416;2022-07-22T11:22:38;18.05;;;9.77;;
11396;SDS011;5754;43.726;7.416;2022-07-22T11:25:13;12.77;;;9.48;;
11396;SDS011;5754;43.726;7.416;2022-07-22T11:27:51;13.05;;;9.77;;
11396;SDS011;5754;43.726;7.416;2022-07-22T11:30:26;13.80;;;9.55;;
11396;SDS011;5754;43.726;7.416;2022-07-22T11:33:02;10.93;;;9.07;;
11396;SDS011;5754;43.726;7.416;2022-07-22T11:35:36;15.48;;;12.93;;
11396;SDS011;5754;43.726;7.416;2022-07-22T11:38:11;13.55;;;9.40;;
11396;SDS011;5754;43.726;7.416;2022-07-22T11:40:46;11.90;;;9.10;;
11396;SDS011;5754;43.726;7.416;2022-07-22T11:43:23;14.55;;;9.32;;
11396;SDS011;5754;43.726;7.416;2022-07-22T11:45:58;13.15;;;8.77;;
11396;SDS011;5754;43.726;7.416;2022-07-22T11:48:33;11.35;;;8.55;;
11396;SDS011;5754;43.726;7.416;2022-07-22T11:51:09;11.05;;;8.73;;
11396;SDS011;5754;43.726;7.416;2022-07-22T11:53:43;11.77;;;8.65;;
11396;SDS011;5754;43.726;7.416;2022-07-22T11:56:19;13.27;;;7.55;;
11396;SDS011;5754;43.726;7.416;2022-07-22T11:58:53;9.85;;;7.65;;
11396;SDS011;5754;43.726;7.416;2022-07-22T12:01:28;14.95;;;8.02;;
11396;SDS011;5754;43.726;7.416;2022-07-22T12:04:09;9.05;;;7.32;;
11396;SDS011;5754;43.726;7.416;2022-07-22T12:06:45;10.30;;;7.75;;
11396;SDS011;5754;43.726;7.416;2022-07-22T12:12:04;12.93;;;8.10;;
11396;SDS011;5754;43.726;7.416;2022-07-22T12:14:45;10.23;;;6.95;;
11396;SDS011;5754;43.726;7.416;2022-07-22T12:17:22;14.68;;;7.07;;
11396;SDS011;5754;43.726;7.416;2022-07-22T12:22:45;9.93;;;7.32;;
11396;SDS011;5754;43.726;7.416;2022-07-22T12:25:20;9.50;;;6.72;;
11396;SDS011;5754;43.726;7.416;2022-07-22T12:28:00;9.55;;;7.32;;
11396;SDS011;5754;43.726;7.416;2022-07-22T12:30:35;9.23;;;7.32;;
11396;SDS011;5754;43.726;7.416;2022-07-22T12:33:13;13.43;;;7.80;;
11396;SDS011;5754;43.726;7.416;2022-07-22T12:36:02;10.05;;;7.15;;
11396;SDS011;5754;43.726;7.416;2022-07-22T12:38:38;11.70;;;7.82;;
11396;SDS011;5754;43.726;7.416;2022-07-22T12:41:22;8.63;;;7.28;;
11396;SDS011;5754;43.726;7.416;2022-07-22T12:43:57;16.33;;;7.18;;
11396;SDS011;5754;43.726;7.416;2022-07-22T12:46:32;11.60;;;7.05;;
11396;SDS011;5754;43.726;7.416;2022-07-22T12:49:10;10.23;;;6.80;;
11396;SDS011;5754;43.726;7.416;2022-07-22T12:54:38;8.35;;;6.15;;
11396;SDS011;5754;43.726;7.416;2022-07-22T12:57:16;11.02;;;6.57;;
11396;SDS011;5754;43.726;7.416;2022-07-22T12:59:53;11.25;;;6.95;;
11396;SDS011;5754;43.726;7.416;2022-07-22T13:02:28;9.15;;;6.57;;
11396;SDS011;5754;43.726;7.416;2022-07-22T13:05:04;10.20;;;6.57;;
11396;SDS011;5754;43.726;7.416;2022-07-22T13:07:39;15.30;;;6.80;;
11396;SDS011;5754;43.726;7.416;2022-07-22T13:10:15;10.07;;;6.40;;
11396;SDS011;5754;43.726;7.416;2022-07-22T13:12:50;10.45;;;6.78;;
11396;SDS011;5754;43.726;7.416;2022-07-22T13:15:25;10.25;;;7.18;;
11396;SDS011;5754;43.726;7.416;2022-07-22T13:17:59;9.73;;;7.20;;
11396;SDS011;5754;43.726;7.416;2022-07-22T13:20:34;9.98;;;6.90;;
11396;SDS011;5754;43.726;7.416;2022-07-22T13:23:08;8.65;;;7.10;;
11396;SDS011;5754;43.726;7.416;2022-07-22T13:25:42;9.10;;;7.07;;
11396;SDS011;5754;43.726;7.416;2022-07-22T13:28:16;9.38;;;6.90;;
11396;SDS011;5754;43.726;7.416;2022-07-22T13:30:51;10.55;;;6.22;;
11396;SDS011;5754;43.726;7.416;2022-07-22T13:33:26;8.77;;;6.62;;
11396;SDS011;5754;43.726;7.416;2022-07-22T13:36:00;9.38;;;6.55;;
11396;SDS011;5754;43.726;7.416;2022-07-22T13:38:35;9.05;;;6.47;;
11396;SDS011;5754;43.726;7.416;2022-07-22T13:41:09;9.75;;;6.80;;
11396;SDS011;5754;43.726;7.416;2022-07-22T13:43:50;11.12;;;6.50;;
11396;SDS011;5754;43.726;7.416;2022-07-22T13:46:24;9.77;;;6.57;;
11396;SDS011;5754;43.726;7.416;2022-07-22T13:48:58;10.82;;;6.70;;
11396;SDS011;5754;43.726;7.416;2022-07-22T13:51:33;11.55;;;6.68;;
11396;SDS011;5754;43.726;7.416;2022-07-22T13:54:08;14.05;;;6.80;;
11396;SDS011;5754;43.726;7.416;2022-07-22T13:56:43;12.45;;;7.32;;
11396;SDS011;5754;43.726;7.416;2022-07-22T13:59:21;8.63;;;6.80;;
11396;SDS011;5754;43.726;7.416;2022-07-22T14:01:57;9.23;;;6.75;;
11396;SDS011;5754;43.726;7.416;2022-07-22T14:04:35;10.00;;;6.45;;
11396;SDS011;5754;43.726;7.416;2022-07-22T14:07:09;8.25;;;6.30;;
11396;SDS011;5754;43.726;7.416;2022-07-22T14:09:45;9.98;;;6.85;;
11396;SDS011;5754;43.726;7.416;2022-07-22T14:12:19;15.75;;;7.35;;
11396;SDS011;5754;43.726;7.416;2022-07-22T14:14:55;9.52;;;7.10;;
11396;SDS011;5754;43.726;7.416;2022-07-22T14:17:29;11.10;;;6.40;;
11396;SDS011;5754;43.726;7.416;2022-07-22T14:20:04;12.00;;;7.15;;
11396;SDS011;5754;43.726;7.416;2022-07-22T14:22:41;11.30;;;6.60;;
11396;SDS011;5754;43.726;7.416;2022-07-22T14:25:16;9.93;;;6.37;;
11396;SDS011;5754;43.726;7.416;2022-07-22T14:27:51;11.50;;;6.70;;
11396;SDS011;5754;43.726;7.416;2022-07-22T14:30:34;9.70;;;7.50;;
11396;SDS011;5754;43.726;7.416;2022-07-22T14:33:11;12.02;;;7.43;;
11396;SDS011;5754;43.726;7.416;2022-07-22T14:35:47;12.18;;;7.50;;
11396;SDS011;5754;43.726;7.416;2022-07-22T14:38:24;11.30;;;7.43;;
11396;SDS011;5754;43.726;7.416;2022-07-22T14:40:58;9.10;;;6.93;;
11396;SDS011;5754;43.726;7.416;2022-07-22T14:43:33;9.75;;;7.32;;
11396;SDS011;5754;43.726;7.416;2022-07-22T14:46:12;12.10;;;7.82;;
11396;SDS011;5754;43.726;7.416;2022-07-22T14:48:47;10.75;;;7.45;;
11396;SDS011;5754;43.726;7.416;2022-07-22T14:51:25;9.23;;;6.82;;
11396;SDS011;5754;43.726;7.416;2022-07-22T14:54:00;8.50;;;6.95;;
11396;SDS011;5754;43.726;7.416;2022-07-22T14:56:34;11.30;;;6.85;;
11396;SDS011;5754;43.726;7.416;2022-07-22T14:59:09;9.88;;;7.18;;
11396;SDS011;5754;43.726;7.416;2022-07-22T15:04:27;8.13;;;6.57;;
11396;SDS011;5754;43.726;7.416;2022-07-22T15:07:02;10.40;;;7.00;;
11396;SDS011;5754;43.726;7.416;2022-07-22T15:09:36;12.73;;;8.00;;
11396;SDS011;5754;43.726;7.416;2022-07-22T15:12:11;12.40;;;8.05;;
11396;SDS011;5754;43.726;7.416;2022-07-22T15:15:03;15.10;;;8.15;;
11396;SDS011;5754;43.726;7.416;2022-07-22T15:17:38;11.05;;;7.97;;
11396;SDS011;5754;43.726;7.416;2022-07-22T15:20:13;10.48;;;7.68;;
11396;SDS011;5754;43.726;7.416;2022-07-22T15:22:47;12.00;;;7.75;;
11396;SDS011;5754;43.726;7.416;2022-07-22T15:25:22;11.32;;;8.60;;
11396;SDS011;5754;43.726;7.416;2022-07-22T15:27:56;10.25;;;7.75;;
11396;SDS011;5754;43.726;7.416;2022-07-22T15:30:48;9.77;;;7.93;;
11396;SDS011;5754;43.726;7.416;2022-07-22T15:33:22;13.95;;;8.05;;
11396;SDS011;5754;43.726;7.416;2022-07-22T15:36:04;12.05;;;7.95;;
11396;SDS011;5754;43.726;7.416;2022-07-22T15:38:39;14.65;;;8.65;;
11396;SDS011;5754;43.726;7.416;2022-07-22T15:41:14;10.93;;;7.70;;
11396;SDS011;5754;43.726;7.416;2022-07-22T15:43:49;13.70;;;8.77;;
11396;SDS011;5754;43.726;7.416;2022-07-22T15:46:24;11.30;;;7.95;;
11396;SDS011;5754;43.726;7.416;2022-07-22T15:48:58;11.93;;;8.07;;
11396;SDS011;5754;43.726;7.416;2022-07-22T15:51:34;11.68;;;8.63;;
11396;SDS011;5754;43.726;7.416;2022-07-22T15:54:08;13.98;;;7.68;;
11396;SDS011;5754;43.726;7.416;2022-07-22T15:56:43;11.32;;;8.07;;
11396;SDS011;5754;43.726;7.416;2022-07-22T15:59:17;12.65;;;8.23;;
11396;SDS011;5754;43.726;7.416;2022-07-22T16:02:52;13.48;;;8.77;;
11396;SDS011;5754;43.726;7.416;2022-07-22T16:05:27;10.73;;;8.30;;
11396;SDS011;5754;43.726;7.416;2022-07-22T16:08:01;8.82;;;7.90;;
11396;SDS011;5754;43.726;7.416;2022-07-22T16:10:36;8.75;;;7.70;;
11396;SDS011;5754;43.726;7.416;2022-07-22T16:13:10;13.32;;;7.85;;
11396;SDS011;5754;43.726;7.416;2022-07-22T16:15:45;12.05;;;7.95;;
11396;SDS011;5754;43.726;7.416;2022-07-22T16:18:19;12.40;;;7.93;;